NKS221 KRDU-KACY
Flight info
| Callsign | NKS221 |
|---|---|
| Flight time | 0h 58m |
| Altitude | 33000 |
| Route | HURIC4 FEBEL GUILD SAWED ZJAAY RADDS SIE |
| Aircraft | A21N/M-SDE2E3FGHIRWXY/LB1 |
Departure
| Time | 2026-05-03 20:35 |
|---|---|
| Airport | Raleigh-Durham International Airport (KRDU) |
Arrival
| Time | 2026-05-03 21:33 |
|---|---|
| Airport | Atlantic City International Airport (KACY) |
| Time | Latitude | Longitude | Altitude | Speed | Heading |
|---|---|---|---|---|---|
| 2026-05-03 20:19 | 35.87637 | -78.79554 | 418 ft | 0 kts | 123° |
| 2026-05-03 20:28 | 35.87644 | -78.79564 | 415 ft | 3 kts | 161° |
| 2026-05-03 20:28 | 35.87662 | -78.79563 | 419 ft | 3 kts | 223° |
| 2026-05-03 20:28 | 35.87665 | -78.79560 | 421 ft | 0 kts | 236° |
| 2026-05-03 20:31 | 35.87661 | -78.79566 | 422 ft | 2 kts | 236° |
| 2026-05-03 20:31 | 35.87639 | -78.79612 | 420 ft | 16 kts | 240° |
| 2026-05-03 20:31 | 35.87543 | -78.79782 | 418 ft | 16 kts | 228° |
| 2026-05-03 20:31 | 35.87480 | -78.79862 | 419 ft | 19 kts | 221° |
| 2026-05-03 20:32 | 35.87366 | -78.79998 | 425 ft | 11 kts | 225° |
| 2026-05-03 20:32 | 35.87346 | -78.80038 | 429 ft | 0 kts | 275° |
| 2026-05-03 20:32 | 35.87363 | -78.80071 | 420 ft | 5 kts | 310° |
| 2026-05-03 20:32 | 35.87380 | -78.80092 | 433 ft | 3 kts | 317° |
| 2026-05-03 20:33 | 35.87393 | -78.80107 | 426 ft | 5 kts | 316° |
| 2026-05-03 20:33 | 35.87439 | -78.80156 | 425 ft | 11 kts | 334° |
| 2026-05-03 20:33 | 35.87503 | -78.80128 | 435 ft | 17 kts | 45° |
| 2026-05-03 20:33 | 35.87514 | -78.80114 | 430 ft | 0 kts | 46° |
| 2026-05-03 20:34 | 35.87544 | -78.80075 | 428 ft | 15 kts | 46° |
| 2026-05-03 20:34 | 35.87789 | -78.79771 | 431 ft | 90 kts | 44° |
| 2026-05-03 20:34 | 35.88435 | -78.78978 | 458 ft | 167 kts | 45° |
| 2026-05-03 20:34 | 35.89299 | -78.77868 | 936 ft | 189 kts | 50° |
| 2026-05-03 20:35 | 35.89987 | -78.76410 | 1543 ft | 208 kts | 70° |
| 2026-05-03 20:35 | 35.90190 | -78.74637 | 2319 ft | 219 kts | 96° |
| 2026-05-03 20:35 | 35.89832 | -78.72756 | 3004 ft | 237 kts | 98° |
| 2026-05-03 20:35 | 35.89832 | -78.70636 | 3580 ft | 256 kts | 83° |
| 2026-05-03 20:36 | 35.90146 | -78.68438 | 4422 ft | 263 kts | 78° |
| 2026-05-03 20:36 | 35.90540 | -78.66216 | 5340 ft | 267 kts | 78° |
| 2026-05-03 20:36 | 35.90906 | -78.63946 | 6265 ft | 271 kts | 80° |
| 2026-05-03 20:36 | 35.91206 | -78.61627 | 7203 ft | 275 kts | 82° |
| 2026-05-03 20:37 | 35.91441 | -78.59263 | 8141 ft | 279 kts | 84° |
| 2026-05-03 20:37 | 35.91632 | -78.56863 | 9072 ft | 283 kts | 85° |
| 2026-05-03 20:37 | 35.91797 | -78.54420 | 10009 ft | 287 kts | 85° |
| 2026-05-03 20:37 | 35.91951 | -78.51947 | 10921 ft | 291 kts | 85° |
| 2026-05-03 20:38 | 35.92103 | -78.49475 | 11817 ft | 295 kts | 85° |
| 2026-05-03 20:38 | 35.92260 | -78.46933 | 12709 ft | 299 kts | 85° |
| 2026-05-03 20:38 | 35.92424 | -78.44359 | 13596 ft | 303 kts | 85° |
| 2026-05-03 20:38 | 35.92592 | -78.41746 | 14466 ft | 308 kts | 85° |
| 2026-05-03 20:39 | 35.92764 | -78.39094 | 15335 ft | 312 kts | 85° |
| 2026-05-03 20:39 | 35.92939 | -78.36410 | 16198 ft | 316 kts | 85° |
| 2026-05-03 20:39 | 35.93116 | -78.33687 | 17037 ft | 320 kts | 85° |
| 2026-05-03 20:39 | 35.93294 | -78.30931 | 17839 ft | 324 kts | 85° |
| 2026-05-03 20:40 | 35.93475 | -78.28139 | 18620 ft | 328 kts | 85° |
| 2026-05-03 20:40 | 35.93656 | -78.25313 | 19369 ft | 332 kts | 85° |
| 2026-05-03 20:40 | 35.93839 | -78.22456 | 20091 ft | 336 kts | 85° |
| 2026-05-03 20:40 | 35.94023 | -78.19568 | 20794 ft | 340 kts | 85° |
| 2026-05-03 20:41 | 35.94208 | -78.16644 | 21503 ft | 344 kts | 85° |
| 2026-05-03 20:41 | 35.94395 | -78.13686 | 22183 ft | 347 kts | 85° |
| 2026-05-03 20:41 | 35.94583 | -78.10695 | 22853 ft | 351 kts | 85° |
| 2026-05-03 20:41 | 35.94770 | -78.07716 | 23494 ft | 355 kts | 85° |
| 2026-05-03 20:42 | 35.94961 | -78.04655 | 24131 ft | 358 kts | 85° |
| 2026-05-03 20:42 | 35.95153 | -78.01572 | 24749 ft | 362 kts | 85° |
| 2026-05-03 20:42 | 35.95346 | -77.98455 | 25344 ft | 366 kts | 85° |
| 2026-05-03 20:42 | 35.95540 | -77.95311 | 25937 ft | 369 kts | 85° |
| 2026-05-03 20:43 | 35.95736 | -77.92133 | 26507 ft | 373 kts | 85° |
| 2026-05-03 20:43 | 35.96278 | -77.89005 | 27036 ft | 376 kts | 68° |
| 2026-05-03 20:43 | 35.97440 | -77.86102 | 27574 ft | 379 kts | 59° |
| 2026-05-03 20:43 | 35.98892 | -77.83374 | 28094 ft | 382 kts | 54° |
| 2026-05-03 20:44 | 36.00471 | -77.80723 | 28591 ft | 385 kts | 53° |
| 2026-05-03 20:44 | 36.02089 | -77.78072 | 29073 ft | 388 kts | 53° |
| 2026-05-03 20:44 | 36.03680 | -77.75420 | 29525 ft | 391 kts | 53° |
| 2026-05-03 20:44 | 36.05297 | -77.72646 | 29975 ft | 394 kts | 54° |
| 2026-05-03 20:45 | 36.06854 | -77.69901 | 30400 ft | 397 kts | 55° |
| 2026-05-03 20:45 | 36.08416 | -77.67092 | 30912 ft | 396 kts | 56° |
| 2026-05-03 20:45 | 36.09964 | -77.64278 | 31460 ft | 394 kts | 56° |
| 2026-05-03 20:45 | 36.11498 | -77.61473 | 31973 ft | 393 kts | 56° |
| 2026-05-03 20:46 | 36.13027 | -77.58673 | 32452 ft | 392 kts | 56° |
| 2026-05-03 20:46 | 36.14557 | -77.55872 | 32865 ft | 394 kts | 56° |
| 2026-05-03 20:46 | 36.16092 | -77.53061 | 32980 ft | 393 kts | 56° |
| 2026-05-03 20:47 | 36.19153 | -77.47459 | 33001 ft | 393 kts | 56° |
| 2026-05-03 20:47 | 36.22192 | -77.41892 | 33000 ft | 393 kts | 56° |
| 2026-05-03 20:48 | 36.25252 | -77.36281 | 33000 ft | 393 kts | 56° |
| 2026-05-03 20:48 | 36.28309 | -77.30663 | 32999 ft | 393 kts | 56° |
| 2026-05-03 20:49 | 36.31514 | -77.25196 | 33001 ft | 392 kts | 47° |
| 2026-05-03 20:49 | 36.35416 | -77.20454 | 33001 ft | 392 kts | 43° |
| 2026-05-03 20:50 | 36.37740 | -77.17822 | 33000 ft | 392 kts | 41° |
| 2026-05-03 20:50 | 36.41811 | -77.13300 | 33001 ft | 392 kts | 41° |
| 2026-05-03 20:51 | 36.45878 | -77.08778 | 33001 ft | 392 kts | 41° |
| 2026-05-03 20:51 | 36.49934 | -77.04239 | 33001 ft | 392 kts | 42° |
| 2026-05-03 20:52 | 36.53981 | -76.99691 | 33001 ft | 392 kts | 42° |
| 2026-05-03 20:52 | 36.58031 | -76.95130 | 33001 ft | 392 kts | 42° |
| 2026-05-03 20:53 | 36.62074 | -76.90571 | 33000 ft | 392 kts | 42° |
| 2026-05-03 20:53 | 36.66094 | -76.86032 | 32999 ft | 392 kts | 42° |
| 2026-05-03 20:54 | 36.70139 | -76.81458 | 33000 ft | 392 kts | 42° |
| 2026-05-03 20:54 | 36.76211 | -76.74579 | 33001 ft | 392 kts | 42° |
| 2026-05-03 20:55 | 36.80248 | -76.69998 | 32999 ft | 392 kts | 42° |
| 2026-05-03 20:55 | 36.83603 | -76.66185 | 33000 ft | 392 kts | 42° |
| 2026-05-03 20:56 | 36.84866 | -76.64748 | 33001 ft | 392 kts | 42° |
| 2026-05-03 20:57 | 36.86277 | -76.63142 | 33001 ft | 392 kts | 42° |
| 2026-05-03 20:57 | 36.89927 | -76.58984 | 32998 ft | 392 kts | 42° |
| 2026-05-03 20:58 | 36.93949 | -76.54397 | 32656 ft | 390 kts | 42° |
| 2026-05-03 20:58 | 36.95953 | -76.52108 | 31979 ft | 391 kts | 42° |
| 2026-05-03 20:58 | 36.97969 | -76.49805 | 31272 ft | 394 kts | 42° |
| 2026-05-03 20:59 | 36.99998 | -76.47484 | 30582 ft | 395 kts | 42° |
| 2026-05-03 20:59 | 37.02027 | -76.45162 | 30137 ft | 394 kts | 42° |
| 2026-05-03 20:59 | 37.04060 | -76.42833 | 30013 ft | 397 kts | 42° |
| 2026-05-03 20:59 | 37.06099 | -76.40495 | 30016 ft | 397 kts | 42° |
| 2026-05-03 21:00 | 37.08798 | -76.37399 | 30017 ft | 397 kts | 42° |
| 2026-05-03 21:00 | 37.14249 | -76.31134 | 30017 ft | 397 kts | 42° |
| 2026-05-03 21:01 | 37.18297 | -76.26475 | 30010 ft | 397 kts | 42° |
| 2026-05-03 21:01 | 37.22368 | -76.21781 | 30017 ft | 397 kts | 42° |
| 2026-05-03 21:02 | 37.26428 | -76.17094 | 29669 ft | 394 kts | 42° |
| 2026-05-03 21:02 | 37.28440 | -76.14768 | 29106 ft | 392 kts | 42° |
| 2026-05-03 21:02 | 37.30436 | -76.12459 | 28563 ft | 389 kts | 42° |
| 2026-05-03 21:03 | 37.32416 | -76.10167 | 28027 ft | 385 kts | 42° |
| 2026-05-03 21:03 | 37.34381 | -76.07890 | 27495 ft | 382 kts | 42° |
| 2026-05-03 21:03 | 37.36329 | -76.05631 | 26973 ft | 379 kts | 42° |
| 2026-05-03 21:03 | 37.38257 | -76.03394 | 26445 ft | 376 kts | 42° |
| 2026-05-03 21:04 | 37.40168 | -76.01175 | 26094 ft | 373 kts | 42° |
| 2026-05-03 21:04 | 37.42075 | -75.98959 | 26021 ft | 373 kts | 42° |
| 2026-05-03 21:04 | 37.43978 | -75.96746 | 26017 ft | 373 kts | 43° |
| 2026-05-03 21:04 | 37.45861 | -75.94554 | 26018 ft | 373 kts | 43° |
| 2026-05-03 21:05 | 37.47788 | -75.92311 | 26017 ft | 373 kts | 43° |
| 2026-05-03 21:05 | 37.49663 | -75.90126 | 26015 ft | 373 kts | 43° |
| 2026-05-03 21:05 | 37.51565 | -75.87908 | 26017 ft | 372 kts | 42° |
| 2026-05-03 21:05 | 37.52885 | -75.86473 | 25839 ft | 370 kts | 38° |
| 2026-05-03 21:06 | 37.55653 | -75.83997 | 25112 ft | 367 kts | 33° |
| 2026-05-03 21:06 | 37.57783 | -75.82236 | 24581 ft | 364 kts | 32° |
| 2026-05-03 21:06 | 37.59911 | -75.80535 | 24159 ft | 361 kts | 32° |
| 2026-05-03 21:06 | 37.61328 | -75.79418 | 24045 ft | 361 kts | 32° |
| 2026-05-03 21:07 | 37.63487 | -75.77722 | 23867 ft | 359 kts | 32° |
| 2026-05-03 21:07 | 37.65583 | -75.76074 | 23712 ft | 360 kts | 32° |
| 2026-05-03 21:07 | 37.67710 | -75.74394 | 23603 ft | 359 kts | 32° |
| 2026-05-03 21:07 | 37.69823 | -75.72720 | 23502 ft | 359 kts | 32° |
| 2026-05-03 21:08 | 37.71934 | -75.71040 | 23404 ft | 358 kts | 32° |
| 2026-05-03 21:08 | 37.74039 | -75.69361 | 23302 ft | 357 kts | 32° |
| 2026-05-03 21:08 | 37.76141 | -75.67682 | 23201 ft | 357 kts | 32° |
| 2026-05-03 21:08 | 37.78236 | -75.66007 | 23102 ft | 356 kts | 32° |
| 2026-05-03 21:09 | 37.80329 | -75.64333 | 23001 ft | 356 kts | 32° |
| 2026-05-03 21:09 | 37.82421 | -75.62659 | 22896 ft | 355 kts | 32° |
| 2026-05-03 21:09 | 37.84505 | -75.60989 | 22732 ft | 353 kts | 32° |
| 2026-05-03 21:09 | 37.86550 | -75.59350 | 22241 ft | 351 kts | 32° |
| 2026-05-03 21:10 | 37.88604 | -75.57703 | 21721 ft | 348 kts | 32° |
| 2026-05-03 21:10 | 37.90644 | -75.56066 | 21198 ft | 346 kts | 32° |
| 2026-05-03 21:10 | 37.92670 | -75.54440 | 20682 ft | 343 kts | 32° |
| 2026-05-03 21:10 | 37.94673 | -75.52831 | 20215 ft | 340 kts | 32° |
| 2026-05-03 21:11 | 37.96666 | -75.51228 | 20038 ft | 339 kts | 32° |
| 2026-05-03 21:11 | 37.98659 | -75.49625 | 20018 ft | 339 kts | 32° |
| 2026-05-03 21:11 | 38.00653 | -75.48020 | 20018 ft | 339 kts | 32° |
| 2026-05-03 21:11 | 38.02641 | -75.46417 | 20018 ft | 339 kts | 32° |
| 2026-05-03 21:12 | 38.04652 | -75.44854 | 20013 ft | 339 kts | 28° |
| 2026-05-03 21:12 | 38.06742 | -75.43476 | 20016 ft | 339 kts | 26° |
| 2026-05-03 21:12 | 38.08857 | -75.42158 | 20014 ft | 339 kts | 25° |
| 2026-05-03 21:12 | 38.10988 | -75.40877 | 20018 ft | 339 kts | 25° |
| 2026-05-03 21:13 | 38.13125 | -75.39617 | 20017 ft | 339 kts | 24° |
| 2026-05-03 21:13 | 38.15267 | -75.38362 | 20015 ft | 339 kts | 24° |
| 2026-05-03 21:13 | 38.17408 | -75.37109 | 20020 ft | 339 kts | 24° |
| 2026-05-03 21:13 | 38.19520 | -75.35869 | 20016 ft | 339 kts | 24° |
| 2026-05-03 21:14 | 38.21657 | -75.34609 | 20015 ft | 339 kts | 25° |
| 2026-05-03 21:14 | 38.23795 | -75.33345 | 20018 ft | 339 kts | 25° |
| 2026-05-03 21:14 | 38.25931 | -75.32079 | 20014 ft | 339 kts | 25° |
| 2026-05-03 21:14 | 38.28066 | -75.30813 | 20015 ft | 339 kts | 25° |
| 2026-05-03 21:15 | 38.30202 | -75.29544 | 20017 ft | 339 kts | 25° |
| 2026-05-03 21:15 | 38.32340 | -75.28274 | 20015 ft | 339 kts | 25° |
| 2026-05-03 21:15 | 38.34475 | -75.27004 | 20021 ft | 339 kts | 25° |
| 2026-05-03 21:15 | 38.36610 | -75.25734 | 20016 ft | 339 kts | 25° |
| 2026-05-03 21:16 | 38.38742 | -75.24464 | 20018 ft | 339 kts | 25° |
| 2026-05-03 21:16 | 38.40879 | -75.23191 | 20018 ft | 339 kts | 25° |
| 2026-05-03 21:16 | 38.43011 | -75.21921 | 20014 ft | 339 kts | 25° |
| 2026-05-03 21:16 | 38.45147 | -75.20647 | 20017 ft | 339 kts | 25° |
| 2026-05-03 21:17 | 38.47281 | -75.19373 | 20019 ft | 339 kts | 25° |
| 2026-05-03 21:17 | 38.48691 | -75.18531 | 20018 ft | 339 kts | 25° |
| 2026-05-03 21:17 | 38.51553 | -75.16821 | 20020 ft | 339 kts | 25° |
| 2026-05-03 21:17 | 38.53686 | -75.15546 | 20021 ft | 339 kts | 25° |
| 2026-05-03 21:18 | 38.55796 | -75.14283 | 20014 ft | 339 kts | 25° |
| 2026-05-03 21:18 | 38.57957 | -75.12989 | 20019 ft | 339 kts | 25° |
| 2026-05-03 21:18 | 38.60061 | -75.11729 | 20020 ft | 339 kts | 25° |
| 2026-05-03 21:18 | 38.62183 | -75.10457 | 19743 ft | 334 kts | 25° |
| 2026-05-03 21:19 | 38.64259 | -75.09210 | 19405 ft | 325 kts | 25° |
| 2026-05-03 21:19 | 38.66281 | -75.07960 | 18990 ft | 321 kts | 26° |
| 2026-05-03 21:19 | 38.68270 | -75.06699 | 18523 ft | 318 kts | 26° |
| 2026-05-03 21:19 | 38.70236 | -75.05436 | 18131 ft | 315 kts | 26° |
| 2026-05-03 21:20 | 38.72190 | -75.04173 | 18018 ft | 315 kts | 26° |
| 2026-05-03 21:20 | 38.74146 | -75.02908 | 18023 ft | 315 kts | 26° |
| 2026-05-03 21:20 | 38.76100 | -75.01647 | 18020 ft | 315 kts | 26° |
| 2026-05-03 21:20 | 38.78059 | -75.00384 | 18017 ft | 315 kts | 26° |
| 2026-05-03 21:21 | 38.80018 | -74.99123 | 18021 ft | 315 kts | 26° |
| 2026-05-03 21:21 | 38.81978 | -74.97861 | 18014 ft | 314 kts | 26° |
| 2026-05-03 21:21 | 38.83932 | -74.96603 | 18020 ft | 314 kts | 26° |
| 2026-05-03 21:21 | 38.85879 | -74.95349 | 17742 ft | 312 kts | 26° |
| 2026-05-03 21:22 | 38.87817 | -74.94100 | 17250 ft | 311 kts | 26° |
| 2026-05-03 21:22 | 38.89740 | -74.92861 | 16760 ft | 309 kts | 26° |
| 2026-05-03 21:22 | 38.91635 | -74.91638 | 16294 ft | 306 kts | 26° |
| 2026-05-03 21:22 | 38.93533 | -74.90412 | 16052 ft | 305 kts | 26° |
| 2026-05-03 21:23 | 38.95431 | -74.89186 | 16016 ft | 305 kts | 26° |
| 2026-05-03 21:23 | 38.97326 | -74.87960 | 16017 ft | 305 kts | 26° |
| 2026-05-03 21:23 | 38.99223 | -74.86733 | 16017 ft | 305 kts | 26° |
| 2026-05-03 21:23 | 39.01120 | -74.85505 | 16017 ft | 305 kts | 26° |
| 2026-05-03 21:24 | 39.03021 | -74.84274 | 16017 ft | 305 kts | 26° |
| 2026-05-03 21:24 | 39.04914 | -74.83047 | 16017 ft | 305 kts | 26° |
| 2026-05-03 21:24 | 39.06810 | -74.81818 | 16017 ft | 305 kts | 26° |
| 2026-05-03 21:24 | 39.08756 | -74.80748 | 16016 ft | 304 kts | 16° |
| 2026-05-03 21:25 | 39.10836 | -74.80304 | 16019 ft | 304 kts | 2° |
| 2026-05-03 21:25 | 39.12951 | -74.80257 | 16017 ft | 304 kts | 359° |
| 2026-05-03 21:25 | 39.15071 | -74.80316 | 16017 ft | 304 kts | 358° |
| 2026-05-03 21:25 | 39.17160 | -74.80402 | 16017 ft | 304 kts | 358° |
| 2026-05-03 21:26 | 39.19269 | -74.80497 | 15893 ft | 302 kts | 358° |
| 2026-05-03 21:26 | 39.21368 | -74.80595 | 15424 ft | 301 kts | 357° |
| 2026-05-03 21:26 | 39.23453 | -74.80693 | 14940 ft | 299 kts | 357° |
| 2026-05-03 21:26 | 39.25529 | -74.80791 | 14465 ft | 297 kts | 357° |
| 2026-05-03 21:27 | 39.27592 | -74.80889 | 13999 ft | 295 kts | 357° |
| 2026-05-03 21:27 | 39.29639 | -74.80986 | 13528 ft | 293 kts | 357° |
| 2026-05-03 21:27 | 39.31669 | -74.81083 | 13062 ft | 291 kts | 357° |
| 2026-05-03 21:27 | 39.33689 | -74.81179 | 12597 ft | 289 kts | 357° |
| 2026-05-03 21:28 | 39.35687 | -74.81275 | 12229 ft | 284 kts | 357° |
| 2026-05-03 21:28 | 39.37622 | -74.81366 | 11960 ft | 275 kts | 357° |
| 2026-05-03 21:28 | 39.39509 | -74.81456 | 11523 ft | 274 kts | 357° |
| 2026-05-03 21:28 | 39.41420 | -74.81548 | 10955 ft | 277 kts | 357° |
| 2026-05-03 21:29 | 39.43363 | -74.81641 | 10358 ft | 281 kts | 357° |
| 2026-05-03 21:29 | 39.45323 | -74.81735 | 9761 ft | 283 kts | 357° |
| 2026-05-03 21:29 | 39.47297 | -74.81830 | 9163 ft | 284 kts | 357° |
| 2026-05-03 21:29 | 39.49268 | -74.81907 | 8549 ft | 279 kts | 0° |
| 2026-05-03 21:30 | 39.51139 | -74.81465 | 7886 ft | 272 kts | 24° |
| 2026-05-03 21:30 | 39.52610 | -74.80005 | 7184 ft | 267 kts | 53° |
| 2026-05-03 21:30 | 39.53322 | -74.77846 | 6469 ft | 259 kts | 82° |
| 2026-05-03 21:30 | 39.53167 | -74.75603 | 5774 ft | 246 kts | 109° |
| 2026-05-03 21:31 | 39.52494 | -74.73603 | 4848 ft | 243 kts | 117° |
| 2026-05-03 21:31 | 39.51684 | -74.71658 | 3727 ft | 247 kts | 120° |
| 2026-05-03 21:31 | 39.50805 | -74.69705 | 2389 ft | 254 kts | 121° |
| 2026-05-03 21:31 | 39.49947 | -74.67797 | 1474 ft | 241 kts | 120° |
| 2026-05-03 21:32 | 39.49173 | -74.65922 | 731 ft | 225 kts | 117° |
| 2026-05-03 21:32 | 39.48549 | -74.64250 | 623 ft | 196 kts | 115° |
| 2026-05-03 21:32 | 39.47957 | -74.62765 | 510 ft | 179 kts | 120° |
| 2026-05-03 21:32 | 39.47364 | -74.61358 | 393 ft | 177 kts | 116° |
| 2026-05-03 21:33 | 39.46795 | -74.59961 | 247 ft | 171 kts | 120° |
| 2026-05-03 21:33 | 39.46234 | -74.58635 | 86 ft | 164 kts | 119° |
| 2026-05-03 21:33 | 39.45717 | -74.57645 | 82 ft | 103 kts | 134° |
| 2026-05-03 21:33 | 39.45466 | -74.57271 | 84 ft | 25 kts | 184° |